Time;durP1;ratioP1;P1;durP2;ratioP2;P2;SDS_P1;SDS_P2;PMS_P1;PMS_P2;Temp;Humidity;BMP_temperature;BMP_pressure;BME280_temperature;BME280_humidity;BME280_pressure;Samples;Min_cycle;Max_cycle;Signal;HPM_P1;HPM_P2
2021/12/21 00:00:33;;;;;;;5.15;3.52;;;;;;;-3.16;77.11;98887.60;1616173;86;21554;-65
2021/12/21 00:02:59;;;;;;;5.53;3.17;;;;;;;-3.19;78.01;98890.16;1623157;86;21804;-65
2021/12/21 00:05:29;;;;;;;7.62;3.33;;;;;;;-3.14;77.79;98894.89;1626659;86;21572;-65
2021/12/21 00:07:59;;;;;;;6.80;3.47;;;;;;;-3.07;77.22;98897.02;1621643;87;21585;-66
2021/12/21 00:10:31;;;;;;;8.88;3.20;;;;;;;-3.09;77.25;98882.86;1614904;86;21018;-64
2021/12/21 00:13:04;;;;;;;5.55;2.55;;;;;;;-3.08;77.25;98885.88;1623440;86;21448;-65
2021/12/21 00:18:30;;;;;;;2.75;2.40;;;;;;;-3.08;78.83;98882.45;1590348;87;21559;-65
2021/12/21 00:20:58;;;;;;;4.45;2.65;;;;;;;-3.12;80.57;98889.31;1623267;85;21452;-63
2021/12/21 00:23:36;;;;;;;3.27;2.35;;;;;;;-3.17;79.25;98891.02;1630870;85;21589;-65
2021/12/21 00:26:10;;;;;;;3.42;2.85;;;;;;;-3.24;80.74;98899.17;1631277;85;21494;-65
2021/12/21 00:28:50;;;;;;;3.90;2.42;;;;;;;-3.35;86.12;98901.72;1608398;87;21780;-65
2021/12/21 00:31:07;;;;;;;3.95;2.55;;;;;;;-3.35;88.32;98907.30;1625754;85;21583;-65
2021/12/21 00:33:34;;;;;;;4.72;2.58;;;;;;;-3.35;87.40;98913.73;1635013;85;21018;-65
2021/12/21 00:36:01;;;;;;;4.63;2.90;;;;;;;-3.34;83.54;98912.86;1636946;87;21448;-65
2021/12/21 00:38:28;;;;;;;4.60;3.30;;;;;;;-3.29;81.95;98916.73;1636136;85;21407;-64
2021/12/21 00:40:55;;;;;;;4.20;2.60;;;;;;;-3.25;82.07;98920.58;1596810;88;21891;-62
2021/12/21 00:43:21;;;;;;;3.30;2.33;;;;;;;-3.30;84.21;98920.15;1616345;86;21451;-67
2021/12/21 00:45:48;;;;;;;2.37;1.67;;;;;;;-3.32;83.96;98912.42;1616923;86;21597;-65
2021/12/21 00:48:16;;;;;;;1.70;1.40;;;;;;;-3.38;85.85;98922.70;1620259;86;21654;-65
2021/12/21 00:50:43;;;;;;;;;;;;;;;-3.43;86.02;98925.69;1636862;85;21544;-63
2021/12/21 00:53:12;;;;;;;1.60;1.30;;;;;;;-3.53;85.37;98930.80;1605403;88;20509;-64
2021/12/21 00:55:39;;;;;;;1.82;1.22;;;;;;;-3.56;85.42;98935.08;1607454;87;21579;-65
2021/12/21 00:58:05;;;;;;;1.70;1.60;;;;;;;-3.57;87.41;98940.66;1630663;85;21491;-65
2021/12/21 01:00:32;;;;;;;2.13;1.30;;;;;;;-3.59;87.61;98944.93;1618835;86;21467;-65
2021/12/21 01:03:05;;;;;;;2.02;1.37;;;;;;;-3.62;87.83;98956.47;1615942;86;21647;-64
2021/12/21 01:05:39;;;;;;;2.67;1.37;;;;;;;-3.73;88.44;98956.86;1632911;87;21744;-64
2021/12/21 01:07:59;;;;;;;2.72;1.50;;;;;;;-3.78;85.67;98955.58;1636313;85;21482;-64
2021/12/21 01:13:12;;;;;;;1.67;1.50;;;;;;;-3.80;84.50;98944.88;1606739;87;21573;-64
2021/12/21 01:18:02;;;;;;;1.87;1.20;;;;;;;-3.87;84.72;98953.40;1611569;86;21811;-64
2021/12/21 01:20:36;;;;;;;3.67;1.30;;;;;;;-3.95;80.96;98950.80;1611214;86;21463;-65
2021/12/21 01:28:00;;;;;;;1.75;1.62;;;;;;;-4.03;78.42;98959.76;1580239;86;21563;-63
2021/12/21 01:30:39;;;;;;;3.20;1.50;;;;;;;-4.09;77.04;98965.27;1591562;86;21683;-63
2021/12/21 01:35:42;;;;;;;1.47;1.12;;;;;;;-4.30;77.67;98977.13;1606608;86;21571;-66
2021/12/21 01:38:23;;;;;;;1.15;1.05;;;;;;;-4.31;76.41;98976.28;1625601;86;21506;-65
2021/12/21 01:43:24;;;;;;;1.70;1.32;;;;;;;-4.54;74.62;98991.94;1665528;84;21850;-65
2021/12/21 01:51:16;;;;;;;3.15;1.90;;;;;;;-4.53;75.59;99010.34;1654211;85;21491;-62
2021/12/21 01:53:44;;;;;;;3.80;1.32;;;;;;;-4.46;75.39;99007.38;1656813;84;21565;-64
2021/12/21 01:56:11;;;;;;;2.77;1.65;;;;;;;-4.47;75.10;99011.66;1660293;84;21489;-63
2021/12/21 01:58:39;;;;;;;1.90;1.50;;;;;;;-4.45;74.67;99019.38;1664407;84;21443;-64
2021/12/21 02:01:08;;;;;;;2.75;1.75;;;;;;;-4.48;74.22;99020.23;1665463;84;21595;-64
2021/12/21 02:03:35;;;;;;;4.72;1.67;;;;;;;-4.48;74.32;99025.36;1662494;84;21534;-64
2021/12/21 02:06:02;;;;;;;4.15;1.50;;;;;;;-4.51;73.76;99030.02;1660194;85;21479;-64
2021/12/21 02:08:28;;;;;;;1.73;1.50;;;;;;;-4.52;74.37;99030.01;1656860;84;21800;-62
2021/12/21 02:10:59;;;;;;;3.55;2.00;;;;;;;-4.54;73.75;99031.30;1666615;84;21144;-64
2021/12/21 02:13:24;;;;;;;2.35;1.50;;;;;;;-4.54;74.19;99039.00;1662708;84;21553;-64
2021/12/21 02:15:52;;;;;;;2.30;1.40;;;;;;;-4.51;74.34;99042.00;1657887;85;21500;-63
2021/12/21 02:21:03;;;;;;;2.58;1.65;;;;;;;-4.42;74.41;99049.78;1660683;84;21915;-64
2021/12/21 02:23:35;;;;;;;2.10;1.50;;;;;;;-4.49;73.95;99046.72;1665120;84;21539;-64
2021/12/21 02:31:05;;;;;;;1.90;1.50;;;;;;;-4.58;74.95;99058.19;1666580;84;21106;-64
2021/12/21 02:33:32;;;;;;;1.72;1.30;;;;;;;-4.48;73.26;99065.53;1664837;84;22069;-64
2021/12/21 02:35:59;;;;;;;1.60;1.17;;;;;;;-4.57;73.58;99062.48;1661771;84;21542;-64
2021/12/21 02:38:26;;;;;;;2.55;1.52;;;;;;;-4.51;73.90;99069.80;1656402;84;21951;-65
2021/12/21 02:40:55;;;;;;;2.52;1.75;;;;;;;-4.54;73.53;99072.36;1639898;84;21600;-65
2021/12/21 02:43:22;;;;;;;1.65;1.22;;;;;;;-4.56;73.44;99073.17;1665334;84;20963;-64
2021/12/21 02:45:48;;;;;;;1.87;0.95;;;;;;;-4.58;73.31;99073.59;1662794;84;21886;-64
2021/12/21 02:48:15;;;;;;;2.72;1.70;;;;;;;-4.62;72.90;99075.69;1659841;84;21510;-64
2021/12/21 02:50:42;;;;;;;1.80;1.30;;;;;;;-4.59;72.59;99068.03;1663039;84;21447;-64
2021/12/21 02:53:09;;;;;;;2.80;1.83;;;;;;;-4.65;72.67;99073.97;1663088;84;20966;-65
2021/12/21 02:55:36;;;;;;;4.63;1.97;;;;;;;-4.66;72.74;99083.78;1663123;84;21470;-64
2021/12/21 02:58:03;;;;;;;1.40;1.25;;;;;;;-4.56;72.73;99082.16;1646465;85;21551;-64
2021/12/21 03:00:31;;;;;;;2.20;1.60;;;;;;;-4.60;72.44;99079.13;1650682;84;21644;-64
2021/12/21 03:02:59;;;;;;;1.80;1.40;;;;;;;-4.68;72.57;99084.63;1668308;84;21610;-65
2021/12/21 03:05:28;;;;;;;1.95;1.75;;;;;;;-4.71;72.91;99088.00;1664076;84;21567;-62
2021/12/21 03:08:09;;;;;;;1.60;1.35;;;;;;;-4.73;72.79;99085.44;1661424;84;21528;-63
2021/12/21 03:10:29;;;;;;;3.50;1.62;;;;;;;-4.72;72.74;99084.58;1658041;84;21641;-65
2021/12/21 03:15:28;;;;;;;1.17;0.90;;;;;;;-4.76;72.96;99103.79;1663172;84;21511;-64
2021/12/21 03:17:57;;;;;;;2.40;1.60;;;;;;;-4.78;72.99;99106.33;1666057;83;21024;-64
2021/12/21 03:20:24;;;;;;;1.55;1.32;;;;;;;-4.81;73.22;99110.56;1645297;83;21641;-64
2021/12/21 03:22:50;;;;;;;2.27;1.30;;;;;;;-4.83;73.31;99114.39;1655768;83;21827;-63
2021/12/21 03:25:20;;;;;;;4.40;1.50;;;;;;;-4.89;73.56;99114.34;1671438;83;21424;-63
2021/12/21 03:27:46;;;;;;;2.15;1.30;;;;;;;-4.86;73.57;99114.34;1668540;83;26920;-63
2021/12/21 03:30:15;;;;;;;1.53;1.20;;;;;;;-4.87;73.82;99127.18;1668513;83;21525;-63
2021/12/21 03:32:42;;;;;;;1.50;1.05;;;;;;;-4.82;73.39;99129.35;1662955;83;21475;-63
2021/12/21 03:35:09;;;;;;;1.77;1.17;;;;;;;-4.92;73.73;99130.95;1675324;83;21793;-62
2021/12/21 03:37:36;;;;;;;2.37;1.30;;;;;;;-4.92;74.07;99119.42;1668036;83;21602;-63
2021/12/21 03:40:05;;;;;;;2.90;1.60;;;;;;;-4.85;74.08;99119.08;1650230;84;21596;-64
2021/12/21 03:42:31;;;;;;;1.40;1.30;;;;;;;-4.76;73.94;99115.33;1649342;83;21430;-63
2021/12/21 03:44:58;;;;;;;2.02;1.82;;;;;;;-4.79;73.13;99126.40;1655863;83;21474;-63
2021/12/21 03:47:26;;;;;;;2.00;1.30;;;;;;;-4.80;73.08;99118.69;1656171;83;21859;-64
2021/12/21 03:50:03;;;;;;;2.22;1.45;;;;;;;-4.78;73.13;99124.28;1634271;86;21002;-63
2021/12/21 03:52:30;;;;;;;2.62;1.37;;;;;;;-4.82;74.36;99123.83;1623800;86;21602;-64
2021/12/21 03:55:00;;;;;;;1.57;1.47;;;;;;;-4.80;75.14;99119.56;1626986;85;21006;-64
2021/12/21 03:57:28;;;;;;;1.92;1.50;;;;;;;-4.76;75.52;99120.46;1608127;87;21487;-64
2021/12/21 03:59:55;;;;;;;3.58;2.92;;;;;;;-4.71;75.21;99124.80;1617357;87;22132;-64
2021/12/21 04:02:23;;;;;;;2.75;1.77;;;;;;;-4.70;74.65;99133.34;1607287;87;21647;-63
2021/12/21 04:04:52;;;;;;;1.72;1.30;;;;;;;-4.69;74.51;99131.20;1615132;87;21507;-63
2021/12/21 04:07:18;;;;;;;2.20;1.72;;;;;;;-4.67;74.08;99124.41;1620990;86;21030;-64
2021/12/21 04:09:48;;;;;;;3.98;1.70;;;;;;;-4.68;74.23;99129.08;1588440;87;21659;-65
2021/12/21 04:12:15;;;;;;;2.17;1.52;;;;;;;-4.62;73.90;99133.42;1623819;86;21983;-66
2021/12/21 04:14:43;;;;;;;2.22;1.50;;;;;;;-4.65;73.74;99132.97;1617740;86;21034;-63
2021/12/21 04:17:17;;;;;;;1.80;1.70;;;;;;;-4.67;73.26;99133.78;1610300;86;21569;-62
2021/12/21 04:19:39;;;;;;;2.50;1.72;;;;;;;-4.70;73.17;99139.33;1614091;86;21569;-65
2021/12/21 04:22:05;;;;;;;2.98;1.52;;;;;;;-4.70;73.33;99142.32;1637627;85;21562;-63
2021/12/21 04:24:32;;;;;;;1.75;1.42;;;;;;;-4.68;73.18;99148.76;1634779;85;21444;-62
2021/12/21 04:26:58;;;;;;;4.55;1.72;;;;;;;-4.65;73.07;99144.92;1612683;87;21428;-64
2021/12/21 04:29:25;;;;;;;2.45;1.80;;;;;;;-4.68;72.91;99148.33;1615412;87;21575;-65
2021/12/21 04:31:51;;;;;;;2.75;2.00;;;;;;;-4.77;73.01;99143.09;1621123;86;21011;-65
2021/12/21 04:34:18;;;;;;;3.50;2.02;;;;;;;-4.77;73.22;99146.94;1613078;86;21489;-64
2021/12/21 04:36:45;;;;;;;3.35;1.85;;;;;;;-4.74;73.15;99146.55;1610429;86;21852;-63
2021/12/21 04:40:03;;;;;;;2.50;1.90;;;;;;;-4.76;73.12;99148.25;1603489;87;21439;-63
2021/12/21 04:41:45;;;;;;;2.98;2.27;;;;;;;-4.75;73.12;99156.80;1596586;85;21461;-64
2021/12/21 04:44:13;;;;;;;2.72;2.33;;;;;;;-4.78;73.16;99160.63;1618722;86;21567;-65
2021/12/21 04:46:39;;;;;;;3.05;2.47;;;;;;;-4.73;73.23;99162.41;1633739;85;21678;-65
2021/12/21 04:49:06;;;;;;;2.40;1.95;;;;;;;-4.75;73.20;99163.20;1639557;86;21542;-63
2021/12/21 04:51:33;;;;;;;3.33;2.10;;;;;;;-4.75;74.83;99166.62;1636149;85;21029;-65
2021/12/21 04:53:59;;;;;;;2.13;1.80;;;;;;;-4.75;76.10;99167.91;1636249;86;21519;-65
2021/12/21 04:56:26;;;;;;;1.33;1.10;;;;;;;-4.74;76.02;99164.94;1633826;86;21555;-63
2021/12/21 04:58:53;;;;;;;2.12;1.67;;;;;;;-4.71;74.76;99172.65;1603186;86;21486;-64
2021/12/21 05:01:19;;;;;;;2.60;1.62;;;;;;;-4.73;75.46;99172.66;1631700;87;21427;-63
2021/12/21 05:03:47;;;;;;;4.28;1.85;;;;;;;-4.77;76.60;99168.31;1639342;85;21417;-64
2021/12/21 05:06:15;;;;;;;1.72;1.62;;;;;;;-4.74;77.10;99171.36;1634800;86;21564;-63
2021/12/21 05:08:42;;;;;;;2.12;1.70;;;;;;;-4.70;75.75;99176.95;1634042;86;21613;-65
2021/12/21 05:11:10;;;;;;;3.02;1.60;;;;;;;-4.75;75.61;99182.02;1635887;85;21442;-64
2021/12/21 05:13:38;;;;;;;2.05;1.50;;;;;;;-4.75;75.60;99193.56;1630836;85;21865;-64
2021/12/21 05:16:06;;;;;;;2.92;1.90;;;;;;;-4.73;75.57;99184.60;1629074;85;21613;-64
2021/12/21 05:18:34;;;;;;;1.85;1.52;;;;;;;-4.68;74.90;99177.83;1612793;86;21459;-64
2021/12/21 05:21:00;;;;;;;2.30;2.00;;;;;;;-4.66;74.62;99181.70;1623624;85;21467;-65
2021/12/21 05:23:27;;;;;;;2.05;1.82;;;;;;;-4.70;74.37;99186.78;1644471;85;21379;-65
2021/12/21 05:25:54;;;;;;;3.17;2.47;;;;;;;-4.67;74.40;99192.39;1619110;87;22131;-65
2021/12/21 05:28:21;;;;;;;8.28;3.92;;;;;;;-4.68;73.76;99192.37;1630714;86;27115;-64
2021/12/21 05:30:48;;;;;;;11.40;5.72;;;;;;;-4.73;73.58;99197.03;1639423;85;21627;-65
2021/12/21 05:33:15;;;;;;;6.03;4.10;;;;;;;-4.73;73.70;99208.97;1629100;85;21540;-65
2021/12/21 05:35:42;;;;;;;3.60;2.15;;;;;;;-4.79;78.17;99203.34;1628087;87;20965;-64
2021/12/21 05:38:10;;;;;;;3.33;1.70;;;;;;;-4.90;81.33;99204.92;1631045;85;21487;-64
2021/12/21 05:40:41;;;;;;;2.08;1.45;;;;;;;-4.99;80.44;99209.53;1607014;86;21550;-64
2021/12/21 05:43:08;;;;;;;2.67;1.75;;;;;;;-5.17;82.27;99212.70;1618274;88;21526;-66
2021/12/21 05:45:35;;;;;;;2.10;1.70;;;;;;;-5.16;82.91;99220.85;1636174;86;21618;-65
2021/12/21 05:48:04;;;;;;;2.02;1.70;;;;;;;-5.18;80.11;99219.09;1609548;87;21476;-66
2021/12/21 05:52:30;;;;;;;1.67;1.57;;;;;;;-5.22;78.60;99223.73;1774362;78;23144;-65
2021/12/21 05:54:56;;;;;;;3.50;1.50;;;;;;;-5.29;78.16;99229.21;1744127;80;20915;-65
2021/12/21 05:57:23;;;;;;;2.65;1.50;;;;;;;-5.22;77.78;99231.42;1743827;80;21915;-64
2021/12/21 05:59:50;;;;;;;2.02;1.30;;;;;;;-5.19;77.35;99233.61;1742779;80;26216;-67
2021/12/21 06:02:17;;;;;;;1.30;1.03;;;;;;;-5.30;82.73;99236.45;1743031;80;21735;-67
2021/12/21 06:04:44;;;;;;;1.85;1.30;;;;;;;-5.30;80.65;99239.01;1736573;80;21498;-67
2021/12/21 06:07:11;;;;;;;;;;;;;;;-5.26;79.93;99242.48;1750157;80;21087;-65
2021/12/21 06:09:41;;;;;;;3.15;1.15;;;;;;;-5.31;79.60;99249.69;1740888;80;21840;-66
2021/12/21 06:12:26;;;;;;;1.20;1.10;;;;;;;-5.29;78.78;99256.13;1711455;81;21516;-65
2021/12/21 06:14:58;;;;;;;2.50;1.40;;;;;;;-5.29;77.92;99257.41;1706216;82;21570;-66
2021/12/21 06:26:10;;;;;;;1.12;1.00;;;;;;;-5.43;81.70;99274.27;1705212;82;21498;-59
2021/12/21 06:27:46;;;;;;;7.40;1.60;;;;;;;-5.40;80.34;99282.01;1653190;83;21593;-60
2021/12/21 06:30:13;;;;;;;1.20;1.15;;;;;;;-5.36;78.10;99278.65;1689887;83;21141;-59
2021/12/21 06:32:41;;;;;;;1.32;1.17;;;;;;;-5.34;76.39;99279.53;1689512;83;21567;-60
2021/12/21 06:35:09;;;;;;;1.60;1.37;;;;;;;-5.40;78.50;99285.85;1700009;83;21550;-59
2021/12/21 06:37:36;;;;;;;1.57;1.47;;;;;;;-5.51;83.51;99295.50;1690931;82;21535;-59
2021/12/21 06:40:05;;;;;;;1.42;1.25;;;;;;;-5.75;90.53;99291.25;1689727;83;21558;-60
2021/12/21 06:42:33;;;;;;;2.37;1.45;;;;;;;-5.88;91.79;99294.01;1706081;82;21553;-62
2021/12/21 06:45:00;;;;;;;1.60;1.50;;;;;;;-5.93;92.47;99290.53;1706021;81;21442;-60
2021/12/21 06:52:59;;;;;;;1.65;1.42;;;;;;;-5.99;87.11;99313.08;1690771;83;21455;-59
2021/12/21 06:55:25;;;;;;;3.62;1.55;;;;;;;-6.04;91.38;99313.83;1699338;82;21444;-59
2021/12/21 06:57:53;;;;;;;1.57;1.45;;;;;;;-6.03;93.43;99316.39;1704814;81;21588;-59
2021/12/21 07:00:21;;;;;;;1.62;1.35;;;;;;;-6.03;92.29;99322.78;1686569;83;21880;-59
2021/12/21 07:02:48;;;;;;;3.10;1.67;;;;;;;-6.23;91.54;99326.27;1682942;83;21493;-59
2021/12/21 07:05:15;;;;;;;1.98;1.37;;;;;;;-6.29;92.47;99328.69;1702506;82;21563;-59
2021/12/21 07:07:43;;;;;;;2.62;1.85;;;;;;;-6.22;92.98;99334.80;1704046;82;21523;-59
2021/12/21 07:10:20;;;;;;;1.70;1.50;;;;;;;-6.17;90.27;99341.73;1695013;82;21970;-59
2021/12/21 07:20:39;;;;;;;2.98;1.35;;;;;;;-6.24;79.73;99342.44;1667673;83;21579;-61
2021/12/21 07:23:06;;;;;;;2.10;1.42;;;;;;;-6.23;79.34;99341.62;1685039;84;21509;-60
2021/12/21 07:25:33;;;;;;;2.30;1.50;;;;;;;-6.27;79.43;99353.48;1688417;84;21721;-61
2021/12/21 07:28:00;;;;;;;2.33;1.37;;;;;;;-6.28;78.02;99349.19;1700076;82;21490;-60
2021/12/21 07:30:26;;;;;;;3.10;1.50;;;;;;;-6.32;77.91;99352.95;1704572;82;21574;-60
2021/12/21 07:32:53;;;;;;;1.60;1.40;;;;;;;-6.43;80.78;99362.10;1695085;82;21701;-60
2021/12/21 07:35:20;;;;;;;2.27;1.60;;;;;;;-6.44;77.94;99361.64;1703742;83;21515;-60
2021/12/21 07:37:48;;;;;;;1.98;1.47;;;;;;;-6.50;74.95;99364.93;1701687;82;22115;-60
2021/12/21 07:40:15;;;;;;;2.58;1.67;;;;;;;-6.53;76.11;99375.12;1714947;82;21514;-60
2021/12/21 07:42:42;;;;;;;5.00;2.17;;;;;;;-6.60;73.97;99374.53;1706150;82;20993;-61
2021/12/21 07:45:09;;;;;;;3.52;1.50;;;;;;;-6.63;71.06;99374.45;1679783;82;21555;-60
2021/12/21 07:47:37;;;;;;;2.08;1.35;;;;;;;-6.58;70.40;99380.55;1700418;83;21545;-60
2021/12/21 07:50:05;;;;;;;2.20;1.45;;;;;;;-6.65;66.04;99384.64;1702527;82;21777;-60
2021/12/21 07:52:32;;;;;;;2.87;1.90;;;;;;;-6.77;65.85;99389.50;1714961;82;21471;-60
2021/12/21 07:54:59;;;;;;;3.00;1.70;;;;;;;-6.77;65.99;99391.64;1720463;82;21566;-59
2021/12/21 07:57:25;;;;;;;3.98;2.08;;;;;;;-6.78;66.23;99395.04;1710715;82;21699;-59
2021/12/21 07:59:52;;;;;;;6.20;2.45;;;;;;;-6.84;65.19;99393.59;1716429;82;21598;-60
2021/12/21 08:02:22;;;;;;;5.45;2.02;;;;;;;-6.81;64.19;99407.74;1700656;82;21808;-60
2021/12/21 08:04:52;;;;;;;4.65;1.98;;;;;;;-6.86;63.93;99395.26;1712718;82;21475;-60
2021/12/21 08:07:24;;;;;;;5.28;2.33;;;;;;;-6.94;63.79;99401.90;1712455;82;21455;-61
2021/12/21 08:09:52;;;;;;;5.80;2.20;;;;;;;-6.99;63.57;99407.30;1707442;82;21506;-61
2021/12/21 08:12:18;;;;;;;3.92;2.40;;;;;;;-6.96;63.70;99412.50;1698155;82;21508;-60
2021/12/21 08:14:49;;;;;;;4.95;2.40;;;;;;;-6.93;63.59;99405.77;1718380;82;22047;-59
2021/12/21 08:17:16;;;;;;;5.95;2.62;;;;;;;-6.95;66.04;99419.33;1712459;82;21491;-59
2021/12/21 08:19:46;;;;;;;4.83;2.55;;;;;;;-6.98;64.45;99420.13;1703988;82;21474;-60
2021/12/21 08:22:12;;;;;;;6.60;2.85;;;;;;;-7.01;64.89;99418.77;1703584;82;21544;-60
2021/12/21 08:24:43;;;;;;;6.12;2.45;;;;;;;-7.04;64.21;99427.66;1705967;82;21500;-60
2021/12/21 08:27:10;;;;;;;4.37;2.37;;;;;;;-7.02;65.31;99431.11;1707386;82;21443;-64
2021/12/21 08:29:36;;;;;;;3.50;2.23;;;;;;;-6.91;65.01;99423.28;1706918;83;20950;-60
2021/12/21 08:32:04;;;;;;;2.80;2.00;;;;;;;-6.82;63.52;99441.80;1706709;82;21982;-60
2021/12/21 08:34:31;;;;;;;2.05;1.50;;;;;;;-6.79;62.45;99434.63;1701986;82;21562;-59
2021/12/21 08:36:57;;;;;;;2.08;1.50;;;;;;;-6.68;60.46;99430.63;1703134;82;21549;-61
2021/12/21 08:39:26;;;;;;;2.00;1.52;;;;;;;-6.98;61.07;99435.89;1674599;83;22204;-59
2021/12/21 08:41:58;;;;;;;2.72;1.55;;;;;;;-7.02;60.53;99447.72;1688495;84;21486;-60
2021/12/21 08:44:24;;;;;;;1.87;1.47;;;;;;;-6.97;60.53;99449.09;1687800;82;21557;-60
2021/12/21 08:46:52;;;;;;;3.05;1.40;;;;;;;-6.92;59.53;99451.36;1694458;82;21427;-59
2021/12/21 08:49:19;;;;;;;1.80;1.45;;;;;;;-6.94;60.04;99458.98;1707563;82;21582;-59
2021/12/21 08:51:47;;;;;;;1.90;1.70;;;;;;;-6.92;59.58;99448.38;1702844;82;21485;-59
2021/12/21 08:54:14;;;;;;;1.92;1.57;;;;;;;-7.00;59.18;99448.62;1688516;82;21494;-59
2021/12/21 08:56:41;;;;;;;2.42;1.40;;;;;;;-7.19;58.80;99460.50;1693039;82;21440;-59
2021/12/21 08:59:07;;;;;;;2.43;1.43;;;;;;;-7.20;59.87;99468.56;1688863;83;21542;-61
2021/12/21 09:01:35;;;;;;;;;;;;;;;-7.04;59.98;99463.44;1732859;82;21799;-59
2021/12/21 09:04:02;;;;;;;1.20;1.10;;;;;;;-7.06;59.64;99459.98;1715181;80;22100;-59
2021/12/21 09:06:29;;;;;;;3.00;1.85;;;;;;;-7.15;58.89;99465.72;1726449;80;21483;-59
2021/12/21 09:08:56;;;;;;;2.98;1.95;;;;;;;-7.18;58.95;99468.18;1730665;80;21529;-60
2021/12/21 09:11:23;;;;;;;2.98;1.80;;;;;;;-7.20;58.79;99467.70;1730763;80;21087;-61
2021/12/21 09:13:49;;;;;;;4.20;2.40;;;;;;;-7.31;59.32;99471.25;1696531;82;21514;-60
2021/12/21 09:16:17;;;;;;;2.17;1.93;;;;;;;-7.27;58.89;99477.77;1724721;80;21657;-58
2021/12/21 09:18:44;;;;;;;3.27;2.10;;;;;;;-7.12;59.59;99477.30;1694125;82;21554;-61
2021/12/21 09:21:12;;;;;;;4.78;2.35;;;;;;;-6.98;59.91;99481.89;1725396;80;21453;-60
2021/12/21 09:23:40;;;;;;;3.65;2.65;;;;;;;-6.79;59.00;99473.84;1730196;80;21080;-62
2021/12/21 09:26:08;;;;;;;3.27;1.90;;;;;;;-6.74;58.60;99469.70;1733817;80;20999;-60
2021/12/21 09:28:35;;;;;;;4.05;2.17;;;;;;;-6.73;57.07;99473.98;1727015;81;21833;-64
2021/12/21 09:31:02;;;;;;;2.67;2.08;;;;;;;-6.76;57.96;99481.98;1728858;81;21109;-60
2021/12/21 09:33:30;;;;;;;4.58;2.75;;;;;;;-6.74;56.67;99464.98;1736318;80;21425;-60
2021/12/21 09:35:56;;;;;;;3.83;2.10;;;;;;;-6.92;55.07;99484.59;1729536;81;21479;-60
2021/12/21 09:38:23;;;;;;;3.70;2.17;;;;;;;-6.84;55.96;99481.80;1692792;84;21601;-60
2021/12/21 09:40:49;;;;;;;3.40;2.17;;;;;;;-6.72;56.41;99486.38;1688967;84;21428;-60
2021/12/21 09:43:16;;;;;;;2.10;1.82;;;;;;;-6.76;55.45;99481.98;1688060;82;21550;-61
2021/12/21 09:45:43;;;;;;;2.70;1.98;;;;;;;-6.87;55.50;99466.41;1730615;80;21455;-63
2021/12/21 09:48:10;;;;;;;2.75;1.98;;;;;;;-7.09;55.33;99481.62;1738184;80;21531;-59
2021/12/21 09:50:37;;;;;;;1.55;1.40;;;;;;;-7.24;54.05;99485.92;1720800;81;21620;-60
2021/12/21 09:53:04;;;;;;;1.62;1.12;;;;;;;-7.21;58.06;99492.40;1721772;81;21786;-60
2021/12/21 09:55:31;;;;;;;1.70;1.50;;;;;;;-6.98;54.88;99494.26;1685915;83;21026;-61
2021/12/21 09:57:57;;;;;;;1.77;1.42;;;;;;;-6.51;52.21;99484.30;1729437;81;20967;-61
2021/12/21 10:00:28;;;;;;;2.20;1.62;;;;;;;-5.96;52.00;99485.93;1726491;81;21535;-60
2021/12/21 10:03:04;;;;;;;1.95;1.60;;;;;;;-5.92;50.43;99473.60;1729630;80;21483;-62
2021/12/21 10:05:34;;;;;;;2.67;1.37;;;;;;;-5.77;49.33;99480.73;1692130;82;21749;-61
2021/12/21 10:08:07;;;;;;;2.65;1.82;;;;;;;-5.50;49.19;99478.27;1725703;81;21573;-63
2021/12/21 10:10:41;;;;;;;1.87;1.57;;;;;;;-5.39;48.90;99484.45;1695471;84;21045;-65
2021/12/21 10:13:18;;;;;;;3.08;2.00;;;;;;;-5.38;48.92;99481.50;1736437;80;21496;-59
2021/12/21 10:15:51;;;;;;;2.65;1.95;;;;;;;-5.05;48.20;99485.06;1694653;82;21487;-61
2021/12/21 10:18:25;;;;;;;3.70;2.62;;;;;;;-4.63;47.30;99480.22;1690085;84;22019;-60
2021/12/21 10:20:54;;;;;;;3.65;2.45;;;;;;;-4.24;46.97;99490.63;1722161;80;21542;-60
2021/12/21 10:23:24;;;;;;;4.33;2.83;;;;;;;-4.06;46.88;99490.03;1680980;84;21490;-59
2021/12/21 10:26:12;;;;;;;4.28;2.20;;;;;;;-3.87;44.80;99487.71;1730578;80;21561;-61
2021/12/21 10:28:55;;;;;;;3.45;2.50;;;;;;;-3.86;45.36;99489.02;1732077;82;21459;-60
2021/12/21 10:31:39;;;;;;;3.37;2.10;;;;;;;-3.34;45.61;99493.47;1695707;83;21530;-59
2021/12/21 10:34:13;;;;;;;2.47;1.67;;;;;;;-3.46;44.77;99495.92;1724631;81;21505;-60
2021/12/21 10:36:45;;;;;;;3.92;2.05;;;;;;;-3.63;46.18;99500.86;1742661;80;21412;-61
2021/12/21 10:39:21;;;;;;;2.37;2.00;;;;;;;-3.81;46.51;99501.91;1682236;82;21657;-60
2021/12/21 10:41:51;;;;;;;3.37;1.87;;;;;;;-3.47;46.54;99498.04;1738709;80;21073;-60
2021/12/21 10:44:19;;;;;;;1.95;1.77;;;;;;;-3.22;45.44;99496.62;1741048;80;21477;-59
2021/12/21 10:46:53;;;;;;;2.90;1.85;;;;;;;-3.18;44.62;99496.23;1685268;82;21037;-60
2021/12/21 10:49:28;;;;;;;2.65;2.17;;;;;;;-2.88;43.17;99489.63;1726291;80;21504;-60
2021/12/21 10:52:10;;;;;;;4.12;2.00;;;;;;;-2.46;43.08;99484.41;1725841;81;21433;-61
2021/12/21 10:54:42;;;;;;;4.62;2.42;;;;;;;-2.64;43.18;99492.41;1729914;80;21070;-59
2021/12/21 10:57:22;;;;;;;5.25;2.60;;;;;;;-2.07;42.34;99488.96;1728976;80;21837;-61
2021/12/21 10:59:54;;;;;;;4.40;3.00;;;;;;;-2.04;42.19;99494.11;1727754;80;21609;-60
2021/12/21 11:02:30;;;;;;;5.87;3.33;;;;;;;-2.51;42.33;99496.38;1725416;80;21569;-61
2021/12/21 11:05:04;;;;;;;5.62;2.80;;;;;;;-3.20;43.16;99506.50;1695154;82;20995;-60
2021/12/21 11:07:38;;;;;;;3.20;2.05;;;;;;;-3.66;44.23;99502.53;1698456;82;21442;-63
2021/12/21 11:10:15;;;;;;;7.87;2.80;;;;;;;-4.04;44.98;99510.17;1730807;82;22139;-62
2021/12/21 11:12:45;;;;;;;2.52;1.90;;;;;;;-4.26;45.48;99503.01;1729375;81;20955;-62
2021/12/21 11:15:19;;;;;;;2.42;2.22;;;;;;;-4.28;46.41;99495.70;1721989;80;21551;-62
2021/12/21 11:17:46;;;;;;;2.12;1.87;;;;;;;-4.54;45.69;99507.71;1730121;80;22769;-61
2021/12/21 11:20:14;;;;;;;2.20;1.50;;;;;;;-4.64;46.10;99506.70;1728244;81;21042;-61
2021/12/21 11:22:43;;;;;;;3.02;1.77;;;;;;;-5.13;47.23;99502.88;1730379;81;21684;-61
2021/12/21 11:25:11;;;;;;;2.98;1.75;;;;;;;-5.36;48.64;99506.73;1687737;82;20965;-60
2021/12/21 11:27:41;;;;;;;3.85;1.95;;;;;;;-5.61;49.03;99516.51;1720167;81;21432;-60
2021/12/21 11:30:11;;;;;;;3.05;1.95;;;;;;;-5.72;49.58;99511.58;1696898;82;21469;-61
2021/12/21 11:32:43;;;;;;;3.92;2.17;;;;;;;-5.51;50.13;99520.11;1726255;81;21428;-61
2021/12/21 11:37:41;;;;;;;3.17;1.87;;;;;;;-5.64;50.07;99520.70;1706440;82;21503;-57
2021/12/21 11:40:14;;;;;;;2.80;1.98;;;;;;;-5.87;49.29;99532.19;1704078;82;21039;-57
2021/12/21 11:42:46;;;;;;;3.52;1.95;;;;;;;-6.12;50.26;99531.22;1708847;82;21599;-57
2021/12/21 11:45:23;;;;;;;3.20;2.27;;;;;;;-6.36;48.93;99536.25;1709414;82;21586;-60
2021/12/21 11:48:11;;;;;;;3.90;1.90;;;;;;;-6.79;48.90;99542.88;1705136;82;21788;-61
2021/12/21 11:50:41;;;;;;;4.78;1.72;;;;;;;-7.17;50.04;99552.12;1698893;82;21495;-59
2021/12/21 11:53:13;;;;;;;2.30;1.85;;;;;;;-7.45;51.79;99558.59;1705363;82;21468;-57
2021/12/21 11:55:42;;;;;;;3.70;2.12;;;;;;;-7.55;51.54;99563.39;1705645;81;20969;-59
2021/12/21 11:58:26;;;;;;;2.60;1.92;;;;;;;-7.58;51.46;99565.87;1712079;82;21506;-57
2021/12/21 12:01:15;;;;;;;3.22;2.20;;;;;;;-7.73;51.23;99572.27;1702647;82;21565;-57
2021/12/21 12:03:46;;;;;;;4.10;2.15;;;;;;;-7.89;51.97;99577.34;1660621;84;21613;-57
2021/12/21 12:06:14;;;;;;;4.05;2.58;;;;;;;-7.91;52.01;99578.98;1688823;82;21503;-58
2021/12/21 12:12:15;;;;;;;5.28;2.65;;;;;;;-8.02;53.67;99573.97;1759126;79;23164;-49
2021/12/21 12:14:44;;;;;;;4.42;2.02;;;;;;;-8.10;53.43;99581.39;1734909;81;21427;-50
2021/12/21 12:17:22;;;;;;;3.50;2.55;;;;;;;-8.07;53.33;99587.84;1737093;81;21389;-49
2021/12/21 12:20:00;;;;;;;3.30;1.85;;;;;;;-8.04;53.32;99594.33;1735092;80;21547;-50
2021/12/21 12:22:42;;;;;;;5.57;2.20;;;;;;;-7.99;54.03;99602.53;1736839;80;21557;-46
2021/12/21 12:25:21;;;;;;;3.12;1.85;;;;;;;-7.91;54.04;99596.85;1736232;80;21071;-48
2021/12/21 12:27:50;;;;;;;2.17;1.98;;;;;;;-7.82;53.30;99603.90;1737806;80;20997;-48
2021/12/21 12:30:21;;;;;;;3.83;1.80;;;;;;;-7.87;53.06;99601.64;1737353;80;21454;-48
2021/12/21 12:33:00;;;;;;;2.95;1.57;;;;;;;-7.78;54.28;99612.52;1696392;82;21551;-47
2021/12/21 12:35:33;;;;;;;3.02;1.65;;;;;;;-7.83;53.28;99607.29;1685879;83;22203;-47
2021/12/21 12:38:03;;;;;;;2.15;1.72;;;;;;;-7.81;52.66;99614.58;1663817;83;21030;-47
2021/12/21 12:40:39;;;;;;;3.45;2.10;;;;;;;-7.85;52.59;99625.52;1677252;84;21590;-47
2021/12/21 12:43:11;;;;;;;4.42;2.17;;;;;;;-7.97;52.76;99621.30;1663628;83;21733;-49
2021/12/21 12:45:45;;;;;;;6.78;3.90;;;;;;;-8.05;53.22;99618.09;1671146;84;21637;-48